New ZealandFixed distance
Tarawera 100 km Ultramarathon
17–18 Feb2024
Distance
102km
Finishers
645422 men223 women
Winning time
7:46:42h
Median pace
6.01km/h
Pace distribution
645 finishers · 3.18–13.11 km/h · mean 6.17
Every finisher ran the same 102 km course, so these paces are directly comparable.
Histogram of finisher pace. 645 finishers ranged from 3.18 to 13.11 kilometres per hour, with a mean of 6.17 and a median of 6.01. The busiest band is 5.5 to 6.0 kilometres per hour, with 107 finishers.
Results
Ranks 501–550 of 645
| Rank | Runner | Time | Pace | Cat. | Placing |
|---|---|---|---|---|---|
| 501 | Rowe, LionelNew ZealandMan | 19:57:56h | 5.11 | M65 | 343rd M · 3rd M65 |
| 502 | Parker, CalvinNew ZealandMan | 19:59:09h | 5.10 | M50 | 344th M · 32nd M50 |
| 503 | Brown, KenAustraliaMan | 20:00:37h | 5.10 | M65 | 345th M · 4th M65 |
| 504 | Steedman, BrendaAustraliaWoman | 20:00:53h | 5.10 | W55 | 159th F · 9th W55 |
| 505 | Beeson, DanielAustraliaMan | 20:01:30h | 5.09 | M40 | 346th M · 57th M40 |
| 506 | Zemunic, KateAustraliaWoman | 20:01:32h | 5.09 | W35 | 160th F · 27th W35 |
| 507 | Mur, JeremieFranceMan | 20:06:12h | 5.07 | — | 347th M |
| 508 | Saunders, TomAustraliaMan | 20:08:04h | 5.07 | — | 348th M |
| 509 | Tahi, DavidFranceMan | 20:09:06h | 5.06 | M35 | 349th M · 55th M35 |
| 510 | Te Tai, EthanNew ZealandMan | 20:12:47h | 5.05 | M23 | 350th M · 104th M23 |
| 511 | Norris, DanAustraliaMan | 20:13:48h | 5.04 | M35 | 351st M · 56th M35 |
| 512 | Clarke, WendyNew ZealandWoman | 20:14:08h | 5.04 | W40 | 161st F · 25th W40 |
| 512 | Clarke, GlennNew ZealandMan | 20:14:08h | 5.04 | M45 | 352nd M · 52nd M45 |
| 514 | Mitchell, JaneAustraliaWoman | 20:14:42h | 5.04 | W50 | 162nd F · 16th W50 |
| 515 | Doughty, SteveNew ZealandMan | 20:16:53h | 5.03 | M60 | 353rd M · 14th M60 |
| 516 | English, StephenAustraliaMan | 20:20:47h | 5.01 | M70 | 354th M · 1st M70 |
| 517 | Schlegel, MelissaNew ZealandWoman | 20:24:19h | 5.00 | W40 | 163rd F · 26th W40 |
| 518 | Thompson, HaydenNew ZealandMan | 20:26:04h | 4.99 | M23 | 355th M · 105th M23 |
| 519 | Chapman, AlecAustraliaMan | 20:28:41h | 4.98 | M23 | 356th M · 106th M23 |
| 520 | Templeman, GrantNew ZealandMan | 20:29:14h | 4.98 | M50 | 357th M · 33rd M50 |
| 520 | Dewstow, RossNew ZealandMan | 20:29:14h | 4.98 | M65 | 357th M · 5th M65 |
| 522 | Baucke, DamianNew ZealandMan | 20:29:20h | 4.98 | M50 | 359th M · 34th M50 |
| 523 | Counter, MelindaAustraliaWoman | 20:29:55h | 4.98 | W45 | 164th F · 40th W45 |
| 524 | Santo, LeonardoBrazilMan | 20:30:24h | 4.97 | — | 360th M |
| 525 | Abuid, FernanNew ZealandMan | 20:30:47h | 4.97 | M45 | 361st M · 53rd M45 |
| 526 | Rosendorfsky, TanjaAustriaWoman | 20:32:28h | 4.97 | W23 | 165th F · 39th W23 |
| 527 | Mcsloy, JenniferNew ZealandWoman | 20:32:29h | 4.97 | — | 166th F |
| 528 | Hull, DarrenAustraliaMan | 20:38:52h | 4.94 | M45 | 362nd M · 54th M45 |
| 529 | Page, MarkAustraliaMan | 20:39:09h | 4.94 | M50 | 363rd M · 35th M50 |
| 530 | Grace, ToniNew ZealandWoman | 20:44:17h | 4.92 | W50 | 167th F · 17th W50 |
| 530 | Bowler, WayneNew ZealandMan | 20:44:17h | 4.92 | M55 | 364th M · 17th M55 |
| 532 | Whitfield, RobNew ZealandMan | 20:47:08h | 4.91 | — | 365th M |
| 533 | Whitfield, JohnNew ZealandMan | 20:47:09h | 4.91 | — | 366th M |
| 534 | Andrews, KarenNew ZealandWoman | 20:51:53h | 4.89 | — | 168th F |
| 535 | Robertson, KathleenNew ZealandWoman | 20:53:23h | 4.88 | W35 | 169th F · 28th W35 |
| 536 | Hanley, SteveNew ZealandMan | 20:53:25h | 4.88 | M50 | 367th M · 36th M50 |
| 537 | Montuschi Mujika, IgorNew ZealandMan | 21:06:39h | 4.83 | — | 368th M |
| 538 | Bailey, SteveNew ZealandMan | 21:08:20h | 4.83 | — | 369th M |
| 539 | Black, TamsynAustraliaWoman | 21:10:22h | 4.82 | W40 | 170th F · 27th W40 |
| 540 | Clements, JaniAustraliaWoman | 21:11:32h | 4.81 | W40 | 171st F · 28th W40 |
| 541 | Cleine, JakeAustraliaMan | 21:11:53h | 4.81 | M35 | 370th M · 57th M35 |
| 542 | Lamb, AllanNew ZealandMan | 21:14:22h | 4.80 | M60 | 371st M · 15th M60 |
| 543 | Coggans, ChristopherCanadaMan | 21:15:44h | 4.80 | M60 | 372nd M · 16th M60 |
| 544 | Nipps, JoshAustraliaMan | 21:17:41h | 4.79 | M40 | 373rd M · 58th M40 |
| 545 | Walker, TaraAustraliaWoman | 21:18:14h | 4.79 | W45 | 172nd F · 41st W45 |
| 545 | Lappalainen, MariUnited StatesWoman | 21:18:14h | 4.79 | W35 | 172nd F · 29th W35 |
| 547 | Humphries, ChrisAustraliaMan | 21:23:00h | 4.77 | M45 | 374th M · 55th M45 |
| 548 | McGregor-Mento, MatthewAustraliaMan | 21:28:37h | 4.75 | — | 375th M |
| 549 | Montejo, Tamu HaysNew ZealandMan | 21:28:58h | 4.75 | M45 | 376th M · 56th M45 |
| 550 | Zheng, Jia-JiaChinaWoman | 21:30:14h | 4.74 | W40 | 174th F · 29th W40 |
- 501Rowe, LionelNew ZealandMan343rd M · 3rd M65Time19:57:56hPace5.11Cat.M65
- 502Parker, CalvinNew ZealandMan344th M · 32nd M50Time19:59:09hPace5.10Cat.M50
- 503Brown, KenAustraliaMan345th M · 4th M65Time20:00:37hPace5.10Cat.M65
- 504Steedman, BrendaAustraliaWoman159th F · 9th W55Time20:00:53hPace5.10Cat.W55
- 505Beeson, DanielAustraliaMan346th M · 57th M40Time20:01:30hPace5.09Cat.M40
- 506Zemunic, KateAustraliaWoman160th F · 27th W35Time20:01:32hPace5.09Cat.W35
- 507Mur, JeremieFranceMan347th MTime20:06:12hPace5.07
- 508Saunders, TomAustraliaMan348th MTime20:08:04hPace5.07
- 509Tahi, DavidFranceMan349th M · 55th M35Time20:09:06hPace5.06Cat.M35
- 510Te Tai, EthanNew ZealandMan350th M · 104th M23Time20:12:47hPace5.05Cat.M23
- 511Norris, DanAustraliaMan351st M · 56th M35Time20:13:48hPace5.04Cat.M35
- 512Clarke, WendyNew ZealandWoman161st F · 25th W40Time20:14:08hPace5.04Cat.W40
- 512Clarke, GlennNew ZealandMan352nd M · 52nd M45Time20:14:08hPace5.04Cat.M45
- 514Mitchell, JaneAustraliaWoman162nd F · 16th W50Time20:14:42hPace5.04Cat.W50
- 515Doughty, SteveNew ZealandMan353rd M · 14th M60Time20:16:53hPace5.03Cat.M60
- 516English, StephenAustraliaMan354th M · 1st M70Time20:20:47hPace5.01Cat.M70
- 517Schlegel, MelissaNew ZealandWoman163rd F · 26th W40Time20:24:19hPace5.00Cat.W40
- 518Thompson, HaydenNew ZealandMan355th M · 105th M23Time20:26:04hPace4.99Cat.M23
- 519Chapman, AlecAustraliaMan356th M · 106th M23Time20:28:41hPace4.98Cat.M23
- 520Templeman, GrantNew ZealandMan357th M · 33rd M50Time20:29:14hPace4.98Cat.M50
- 520Dewstow, RossNew ZealandMan357th M · 5th M65Time20:29:14hPace4.98Cat.M65
- 522Baucke, DamianNew ZealandMan359th M · 34th M50Time20:29:20hPace4.98Cat.M50
- 523Counter, MelindaAustraliaWoman164th F · 40th W45Time20:29:55hPace4.98Cat.W45
- 524Santo, LeonardoBrazilMan360th MTime20:30:24hPace4.97
- 525Abuid, FernanNew ZealandMan361st M · 53rd M45Time20:30:47hPace4.97Cat.M45
- 526Rosendorfsky, TanjaAustriaWoman165th F · 39th W23Time20:32:28hPace4.97Cat.W23
- 527Mcsloy, JenniferNew ZealandWoman166th FTime20:32:29hPace4.97
- 528Hull, DarrenAustraliaMan362nd M · 54th M45Time20:38:52hPace4.94Cat.M45
- 529Page, MarkAustraliaMan363rd M · 35th M50Time20:39:09hPace4.94Cat.M50
- 530Grace, ToniNew ZealandWoman167th F · 17th W50Time20:44:17hPace4.92Cat.W50
- 530Bowler, WayneNew ZealandMan364th M · 17th M55Time20:44:17hPace4.92Cat.M55
- 532Whitfield, RobNew ZealandMan365th MTime20:47:08hPace4.91
- 533Whitfield, JohnNew ZealandMan366th MTime20:47:09hPace4.91
- 534Andrews, KarenNew ZealandWoman168th FTime20:51:53hPace4.89
- 535Robertson, KathleenNew ZealandWoman169th F · 28th W35Time20:53:23hPace4.88Cat.W35
- 536Hanley, SteveNew ZealandMan367th M · 36th M50Time20:53:25hPace4.88Cat.M50
- 537Montuschi Mujika, IgorNew ZealandMan368th MTime21:06:39hPace4.83
- 538Bailey, SteveNew ZealandMan369th MTime21:08:20hPace4.83
- 539Black, TamsynAustraliaWoman170th F · 27th W40Time21:10:22hPace4.82Cat.W40
- 540Clements, JaniAustraliaWoman171st F · 28th W40Time21:11:32hPace4.81Cat.W40
- 541Cleine, JakeAustraliaMan370th M · 57th M35Time21:11:53hPace4.81Cat.M35
- 542Lamb, AllanNew ZealandMan371st M · 15th M60Time21:14:22hPace4.80Cat.M60
- 543Coggans, ChristopherCanadaMan372nd M · 16th M60Time21:15:44hPace4.80Cat.M60
- 544Nipps, JoshAustraliaMan373rd M · 58th M40Time21:17:41hPace4.79Cat.M40
- 545Walker, TaraAustraliaWoman172nd F · 41st W45Time21:18:14hPace4.79Cat.W45
- 545Lappalainen, MariUnited StatesWoman172nd F · 29th W35Time21:18:14hPace4.79Cat.W35
- 547Humphries, ChrisAustraliaMan374th M · 55th M45Time21:23:00hPace4.77Cat.M45
- 548McGregor-Mento, MatthewAustraliaMan375th MTime21:28:37hPace4.75
- 549Montejo, Tamu HaysNew ZealandMan376th M · 56th M45Time21:28:58hPace4.75Cat.M45
- 550Zheng, Jia-JiaChinaWoman174th F · 29th W40Time21:30:14hPace4.74Cat.W40
Showing ranks 501–550 of 645